sensor_id;sensor_type;location;lat;lon;timestamp;P1;durP1;ratioP1;P2;durP2;ratioP2
36195;SDS011;22237;51.974;4.616;2023-07-13T00:01:03;16.08;;;3.55;;
36195;SDS011;22237;51.974;4.616;2023-07-13T00:03:28;12.32;;;2.53;;
36195;SDS011;22237;51.974;4.616;2023-07-13T00:05:59;12.68;;;2.53;;
36195;SDS011;22237;51.974;4.616;2023-07-13T00:08:25;19.05;;;2.10;;
36195;SDS011;22237;51.974;4.616;2023-07-13T00:10:51;6.97;;;2.40;;
36195;SDS011;22237;51.974;4.616;2023-07-13T00:13:19;13.65;;;2.25;;
36195;SDS011;22237;51.974;4.616;2023-07-13T00:15:44;14.18;;;1.85;;
36195;SDS011;22237;51.974;4.616;2023-07-13T00:18:09;15.98;;;2.22;;
36195;SDS011;22237;51.974;4.616;2023-07-13T00:20:35;18.25;;;2.80;;
36195;SDS011;22237;51.974;4.616;2023-07-13T00:23:00;11.07;;;1.83;;
36195;SDS011;22237;51.974;4.616;2023-07-13T00:25:25;14.02;;;1.75;;
36195;SDS011;22237;51.974;4.616;2023-07-13T00:27:53;11.55;;;2.03;;
36195;SDS011;22237;51.974;4.616;2023-07-13T00:30:18;10.80;;;2.35;;
36195;SDS011;22237;51.974;4.616;2023-07-13T00:32:43;9.80;;;1.67;;
36195;SDS011;22237;51.974;4.616;2023-07-13T00:35:09;15.57;;;1.90;;
36195;SDS011;22237;51.974;4.616;2023-07-13T00:37:34;4.63;;;1.80;;
36195;SDS011;22237;51.974;4.616;2023-07-13T00:40:01;17.20;;;2.42;;
36195;SDS011;22237;51.974;4.616;2023-07-13T00:42:27;10.95;;;2.10;;
36195;SDS011;22237;51.974;4.616;2023-07-13T00:45:00;13.13;;;2.28;;
36195;SDS011;22237;51.974;4.616;2023-07-13T00:47:25;9.52;;;1.98;;
36195;SDS011;22237;51.974;4.616;2023-07-13T00:49:50;10.00;;;1.88;;
36195;SDS011;22237;51.974;4.616;2023-07-13T00:52:16;10.77;;;1.90;;
36195;SDS011;22237;51.974;4.616;2023-07-13T00:54:42;9.88;;;1.85;;
36195;SDS011;22237;51.974;4.616;2023-07-13T00:57:09;15.43;;;2.00;;
36195;SDS011;22237;51.974;4.616;2023-07-13T00:59:36;7.05;;;2.38;;
36195;SDS011;22237;51.974;4.616;2023-07-13T01:02:03;6.90;;;1.80;;
36195;SDS011;22237;51.974;4.616;2023-07-13T01:04:29;20.88;;;2.13;;
36195;SDS011;22237;51.974;4.616;2023-07-13T01:06:54;16.55;;;2.53;;
36195;SDS011;22237;51.974;4.616;2023-07-13T01:09:20;9.27;;;2.20;;
36195;SDS011;22237;51.974;4.616;2023-07-13T01:11:46;10.45;;;2.72;;
36195;SDS011;22237;51.974;4.616;2023-07-13T01:14:11;20.73;;;2.28;;
36195;SDS011;22237;51.974;4.616;2023-07-13T01:16:37;14.82;;;2.10;;
36195;SDS011;22237;51.974;4.616;2023-07-13T01:19:10;8.35;;;2.25;;
36195;SDS011;22237;51.974;4.616;2023-07-13T01:21:38;11.63;;;1.73;;
36195;SDS011;22237;51.974;4.616;2023-07-13T01:24:07;22.95;;;2.50;;
36195;SDS011;22237;51.974;4.616;2023-07-13T01:26:33;14.70;;;1.75;;
36195;SDS011;22237;51.974;4.616;2023-07-13T01:28:58;7.50;;;1.60;;
36195;SDS011;22237;51.974;4.616;2023-07-13T01:31:24;7.13;;;1.70;;
36195;SDS011;22237;51.974;4.616;2023-07-13T01:33:49;6.25;;;1.60;;
36195;SDS011;22237;51.974;4.616;2023-07-13T01:36:14;13.25;;;2.22;;
36195;SDS011;22237;51.974;4.616;2023-07-13T01:38:40;10.95;;;3.45;;
36195;SDS011;22237;51.974;4.616;2023-07-13T01:41:05;8.38;;;1.55;;
36195;SDS011;22237;51.974;4.616;2023-07-13T01:43:30;13.95;;;2.30;;
36195;SDS011;22237;51.974;4.616;2023-07-13T01:45:55;11.65;;;2.10;;
36195;SDS011;22237;51.974;4.616;2023-07-13T01:48:21;2.40;;;0.95;;
36195;SDS011;22237;51.974;4.616;2023-07-13T01:50:46;4.93;;;1.25;;
36195;SDS011;22237;51.974;4.616;2023-07-13T01:53:11;8.10;;;1.40;;
36195;SDS011;22237;51.974;4.616;2023-07-13T01:55:37;3.95;;;1.27;;
36195;SDS011;22237;51.974;4.616;2023-07-13T01:58:02;4.20;;;1.10;;
36195;SDS011;22237;51.974;4.616;2023-07-13T02:00:28;5.25;;;1.27;;
36195;SDS011;22237;51.974;4.616;2023-07-13T02:02:53;4.35;;;1.08;;
36195;SDS011;22237;51.974;4.616;2023-07-13T02:05:18;7.43;;;1.88;;
36195;SDS011;22237;51.974;4.616;2023-07-13T02:07:44;5.75;;;1.23;;
36195;SDS011;22237;51.974;4.616;2023-07-13T02:10:09;7.63;;;1.17;;
36195;SDS011;22237;51.974;4.616;2023-07-13T02:12:35;9.50;;;1.20;;
36195;SDS011;22237;51.974;4.616;2023-07-13T02:15:00;11.73;;;1.23;;
36195;SDS011;22237;51.974;4.616;2023-07-13T02:17:26;13.32;;;1.88;;
36195;SDS011;22237;51.974;4.616;2023-07-13T02:19:51;4.57;;;1.40;;
36195;SDS011;22237;51.974;4.616;2023-07-13T02:22:16;11.48;;;1.10;;
36195;SDS011;22237;51.974;4.616;2023-07-13T02:24:42;3.45;;;1.30;;
36195;SDS011;22237;51.974;4.616;2023-07-13T02:27:07;6.25;;;1.52;;
36195;SDS011;22237;51.974;4.616;2023-07-13T02:29:32;3.72;;;0.93;;
36195;SDS011;22237;51.974;4.616;2023-07-13T02:31:58;3.80;;;1.30;;
36195;SDS011;22237;51.974;4.616;2023-07-13T02:34:23;3.63;;;1.05;;
36195;SDS011;22237;51.974;4.616;2023-07-13T02:36:48;6.95;;;1.73;;
36195;SDS011;22237;51.974;4.616;2023-07-13T02:39:13;3.05;;;1.38;;
36195;SDS011;22237;51.974;4.616;2023-07-13T02:41:39;5.03;;;1.27;;
36195;SDS011;22237;51.974;4.616;2023-07-13T02:44:04;7.90;;;1.65;;
36195;SDS011;22237;51.974;4.616;2023-07-13T02:46:33;5.53;;;1.50;;
36195;SDS011;22237;51.974;4.616;2023-07-13T02:48:59;5.32;;;1.42;;
36195;SDS011;22237;51.974;4.616;2023-07-13T02:51:25;12.35;;;2.42;;
36195;SDS011;22237;51.974;4.616;2023-07-13T02:53:50;5.18;;;1.70;;
36195;SDS011;22237;51.974;4.616;2023-07-13T02:56:15;9.10;;;1.63;;
36195;SDS011;22237;51.974;4.616;2023-07-13T02:58:41;6.15;;;1.88;;
36195;SDS011;22237;51.974;4.616;2023-07-13T03:01:10;11.43;;;2.17;;
36195;SDS011;22237;51.974;4.616;2023-07-13T03:03:36;5.75;;;1.70;;
36195;SDS011;22237;51.974;4.616;2023-07-13T03:06:02;17.58;;;1.85;;
36195;SDS011;22237;51.974;4.616;2023-07-13T03:08:28;10.90;;;1.35;;
36195;SDS011;22237;51.974;4.616;2023-07-13T03:11:00;8.27;;;2.35;;
36195;SDS011;22237;51.974;4.616;2023-07-13T03:13:26;9.20;;;1.73;;
36195;SDS011;22237;51.974;4.616;2023-07-13T03:15:51;12.98;;;1.75;;
36195;SDS011;22237;51.974;4.616;2023-07-13T03:18:16;4.75;;;1.70;;
36195;SDS011;22237;51.974;4.616;2023-07-13T03:20:41;13.45;;;1.77;;
36195;SDS011;22237;51.974;4.616;2023-07-13T03:23:07;7.15;;;2.22;;
36195;SDS011;22237;51.974;4.616;2023-07-13T03:25:32;9.32;;;1.83;;
36195;SDS011;22237;51.974;4.616;2023-07-13T03:27:57;11.77;;;2.22;;
36195;SDS011;22237;51.974;4.616;2023-07-13T03:30:23;11.82;;;1.73;;
36195;SDS011;22237;51.974;4.616;2023-07-13T03:32:48;17.88;;;1.83;;
36195;SDS011;22237;51.974;4.616;2023-07-13T03:35:14;6.25;;;1.63;;
36195;SDS011;22237;51.974;4.616;2023-07-13T03:37:39;19.58;;;3.15;;
36195;SDS011;22237;51.974;4.616;2023-07-13T03:40:07;7.25;;;1.88;;
36195;SDS011;22237;51.974;4.616;2023-07-13T03:42:34;9.25;;;2.15;;
36195;SDS011;22237;51.974;4.616;2023-07-13T03:44:59;16.77;;;2.78;;
36195;SDS011;22237;51.974;4.616;2023-07-13T03:47:25;13.07;;;2.00;;
36195;SDS011;22237;51.974;4.616;2023-07-13T03:49:50;18.20;;;2.20;;
36195;SDS011;22237;51.974;4.616;2023-07-13T03:52:15;9.80;;;2.20;;
36195;SDS011;22237;51.974;4.616;2023-07-13T03:54:40;15.35;;;2.03;;
36195;SDS011;22237;51.974;4.616;2023-07-13T03:57:06;12.43;;;2.33;;
36195;SDS011;22237;51.974;4.616;2023-07-13T03:59:31;21.92;;;2.92;;
36195;SDS011;22237;51.974;4.616;2023-07-13T04:01:57;6.68;;;1.83;;
36195;SDS011;22237;51.974;4.616;2023-07-13T04:04:22;11.95;;;2.45;;
36195;SDS011;22237;51.974;4.616;2023-07-13T04:06:47;8.98;;;1.73;;
36195;SDS011;22237;51.974;4.616;2023-07-13T04:09:12;12.18;;;2.20;;
36195;SDS011;22237;51.974;4.616;2023-07-13T04:11:38;12.57;;;2.22;;
36195;SDS011;22237;51.974;4.616;2023-07-13T04:14:03;13.98;;;3.10;;
36195;SDS011;22237;51.974;4.616;2023-07-13T04:16:28;13.27;;;1.88;;
36195;SDS011;22237;51.974;4.616;2023-07-13T04:18:54;13.02;;;2.42;;
36195;SDS011;22237;51.974;4.616;2023-07-13T04:21:22;11.75;;;1.83;;
36195;SDS011;22237;51.974;4.616;2023-07-13T04:23:47;18.90;;;2.30;;
36195;SDS011;22237;51.974;4.616;2023-07-13T04:26:12;14.30;;;2.40;;
36195;SDS011;22237;51.974;4.616;2023-07-13T04:28:38;20.00;;;2.35;;
36195;SDS011;22237;51.974;4.616;2023-07-13T04:31:03;13.63;;;2.33;;
36195;SDS011;22237;51.974;4.616;2023-07-13T04:33:29;10.52;;;1.88;;
36195;SDS011;22237;51.974;4.616;2023-07-13T04:35:55;11.60;;;2.00;;
36195;SDS011;22237;51.974;4.616;2023-07-13T04:38:25;12.60;;;2.83;;
36195;SDS011;22237;51.974;4.616;2023-07-13T04:40:52;6.75;;;2.25;;
36195;SDS011;22237;51.974;4.616;2023-07-13T04:43:18;19.40;;;2.58;;
36195;SDS011;22237;51.974;4.616;2023-07-13T04:45:43;12.05;;;2.47;;
36195;SDS011;22237;51.974;4.616;2023-07-13T04:48:08;18.02;;;2.38;;
36195;SDS011;22237;51.974;4.616;2023-07-13T04:50:35;11.38;;;2.72;;
36195;SDS011;22237;51.974;4.616;2023-07-13T04:53:01;8.10;;;2.35;;
36195;SDS011;22237;51.974;4.616;2023-07-13T04:55:26;18.23;;;2.47;;
36195;SDS011;22237;51.974;4.616;2023-07-13T04:57:55;17.40;;;2.40;;
36195;SDS011;22237;51.974;4.616;2023-07-13T05:00:21;14.95;;;2.50;;
36195;SDS011;22237;51.974;4.616;2023-07-13T05:02:46;8.38;;;2.13;;
36195;SDS011;22237;51.974;4.616;2023-07-13T05:05:12;10.35;;;2.78;;
36195;SDS011;22237;51.974;4.616;2023-07-13T05:07:37;14.18;;;2.60;;
36195;SDS011;22237;51.974;4.616;2023-07-13T05:10:03;16.05;;;3.35;;
36195;SDS011;22237;51.974;4.616;2023-07-13T05:12:29;13.63;;;3.38;;
36195;SDS011;22237;51.974;4.616;2023-07-13T05:14:54;8.68;;;2.47;;
36195;SDS011;22237;51.974;4.616;2023-07-13T05:17:19;10.13;;;2.05;;
36195;SDS011;22237;51.974;4.616;2023-07-13T05:19:45;6.93;;;1.73;;
36195;SDS011;22237;51.974;4.616;2023-07-13T05:22:10;17.52;;;2.70;;
36195;SDS011;22237;51.974;4.616;2023-07-13T05:24:35;10.27;;;2.65;;
36195;SDS011;22237;51.974;4.616;2023-07-13T05:27:01;5.82;;;2.22;;
36195;SDS011;22237;51.974;4.616;2023-07-13T05:29:26;13.00;;;2.33;;
36195;SDS011;22237;51.974;4.616;2023-07-13T05:31:51;19.80;;;3.28;;
36195;SDS011;22237;51.974;4.616;2023-07-13T05:34:17;16.27;;;2.40;;
36195;SDS011;22237;51.974;4.616;2023-07-13T05:36:42;8.23;;;2.38;;
36195;SDS011;22237;51.974;4.616;2023-07-13T05:39:08;7.70;;;2.38;;
36195;SDS011;22237;51.974;4.616;2023-07-13T05:41:33;14.98;;;2.70;;
36195;SDS011;22237;51.974;4.616;2023-07-13T05:43:59;11.07;;;2.72;;
36195;SDS011;22237;51.974;4.616;2023-07-13T05:46:24;13.10;;;2.97;;
36195;SDS011;22237;51.974;4.616;2023-07-13T05:48:50;15.93;;;3.13;;
36195;SDS011;22237;51.974;4.616;2023-07-13T05:51:15;17.58;;;1.85;;
36195;SDS011;22237;51.974;4.616;2023-07-13T05:53:40;13.98;;;2.33;;
36195;SDS011;22237;51.974;4.616;2023-07-13T05:56:06;14.82;;;3.03;;
36195;SDS011;22237;51.974;4.616;2023-07-13T05:58:31;12.73;;;2.10;;
36195;SDS011;22237;51.974;4.616;2023-07-13T06:01:00;12.30;;;2.42;;
36195;SDS011;22237;51.974;4.616;2023-07-13T06:03:26;9.02;;;2.50;;
36195;SDS011;22237;51.974;4.616;2023-07-13T06:05:51;12.07;;;2.10;;
36195;SDS011;22237;51.974;4.616;2023-07-13T06:08:17;8.75;;;2.38;;
36195;SDS011;22237;51.974;4.616;2023-07-13T06:10:42;5.22;;;1.17;;
36195;SDS011;22237;51.974;4.616;2023-07-13T06:13:07;2.88;;;1.20;;
36195;SDS011;22237;51.974;4.616;2023-07-13T06:15:33;1.83;;;1.35;;
36195;SDS011;22237;51.974;4.616;2023-07-13T06:17:58;5.88;;;1.88;;
36195;SDS011;22237;51.974;4.616;2023-07-13T06:20:23;2.47;;;1.30;;
36195;SDS011;22237;51.974;4.616;2023-07-13T06:22:49;2.90;;;1.63;;
36195;SDS011;22237;51.974;4.616;2023-07-13T06:25:14;2.05;;;1.45;;
36195;SDS011;22237;51.974;4.616;2023-07-13T06:27:39;3.80;;;1.30;;
36195;SDS011;22237;51.974;4.616;2023-07-13T06:30:04;2.72;;;1.42;;
36195;SDS011;22237;51.974;4.616;2023-07-13T06:32:30;4.60;;;2.00;;
36195;SDS011;22237;51.974;4.616;2023-07-13T06:34:55;5.85;;;1.20;;
36195;SDS011;22237;51.974;4.616;2023-07-13T06:37:20;4.22;;;1.50;;
36195;SDS011;22237;51.974;4.616;2023-07-13T06:39:46;4.00;;;1.75;;
36195;SDS011;22237;51.974;4.616;2023-07-13T06:42:11;4.28;;;1.60;;
36195;SDS011;22237;51.974;4.616;2023-07-13T06:44:36;3.78;;;1.75;;
36195;SDS011;22237;51.974;4.616;2023-07-13T06:47:02;4.80;;;1.80;;
36195;SDS011;22237;51.974;4.616;2023-07-13T06:49:27;2.10;;;1.40;;
36195;SDS011;22237;51.974;4.616;2023-07-13T06:51:52;11.52;;;3.08;;
36195;SDS011;22237;51.974;4.616;2023-07-13T06:54:17;3.90;;;1.90;;
36195;SDS011;22237;51.974;4.616;2023-07-13T06:56:43;5.85;;;2.15;;
36195;SDS011;22237;51.974;4.616;2023-07-13T06:59:08;3.38;;;1.55;;
36195;SDS011;22237;51.974;4.616;2023-07-13T07:01:33;2.70;;;1.83;;
36195;SDS011;22237;51.974;4.616;2023-07-13T07:03:58;5.90;;;2.15;;
36195;SDS011;22237;51.974;4.616;2023-07-13T07:06:24;5.53;;;1.88;;
36195;SDS011;22237;51.974;4.616;2023-07-13T07:08:49;5.90;;;1.90;;
36195;SDS011;22237;51.974;4.616;2023-07-13T07:11:19;3.75;;;2.70;;
36195;SDS011;22237;51.974;4.616;2023-07-13T07:13:45;9.85;;;2.47;;
36195;SDS011;22237;51.974;4.616;2023-07-13T07:16:10;6.10;;;1.85;;
36195;SDS011;22237;51.974;4.616;2023-07-13T07:18:36;5.57;;;1.75;;
36195;SDS011;22237;51.974;4.616;2023-07-13T07:21:01;4.13;;;1.58;;
36195;SDS011;22237;51.974;4.616;2023-07-13T07:23:27;11.38;;;2.78;;
36195;SDS011;22237;51.974;4.616;2023-07-13T07:25:52;10.43;;;2.10;;
36195;SDS011;22237;51.974;4.616;2023-07-13T07:28:17;6.50;;;2.08;;
36195;SDS011;22237;51.974;4.616;2023-07-13T07:30:44;7.85;;;2.38;;
36195;SDS011;22237;51.974;4.616;2023-07-13T07:33:09;6.30;;;1.80;;
36195;SDS011;22237;51.974;4.616;2023-07-13T07:35:34;7.85;;;2.15;;
36195;SDS011;22237;51.974;4.616;2023-07-13T07:38:00;3.85;;;1.60;;
36195;SDS011;22237;51.974;4.616;2023-07-13T07:40:25;2.65;;;1.23;;
36195;SDS011;22237;51.974;4.616;2023-07-13T07:42:51;3.95;;;1.65;;
36195;SDS011;22237;51.974;4.616;2023-07-13T07:45:16;2.20;;;1.60;;
36195;SDS011;22237;51.974;4.616;2023-07-13T07:47:42;2.08;;;1.35;;
36195;SDS011;22237;51.974;4.616;2023-07-13T07:50:07;3.63;;;1.40;;
36195;SDS011;22237;51.974;4.616;2023-07-13T07:52:32;3.53;;;1.77;;
36195;SDS011;22237;51.974;4.616;2023-07-13T07:54:57;5.28;;;1.80;;
36195;SDS011;22237;51.974;4.616;2023-07-13T07:57:23;2.13;;;1.20;;
36195;SDS011;22237;51.974;4.616;2023-07-13T07:59:48;7.90;;;2.17;;
36195;SDS011;22237;51.974;4.616;2023-07-13T08:02:13;2.72;;;1.45;;
36195;SDS011;22237;51.974;4.616;2023-07-13T08:04:39;4.03;;;1.50;;
36195;SDS011;22237;51.974;4.616;2023-07-13T08:07:04;4.97;;;1.85;;
36195;SDS011;22237;51.974;4.616;2023-07-13T08:09:29;9.30;;;1.95;;
36195;SDS011;22237;51.974;4.616;2023-07-13T08:11:55;4.22;;;1.67;;
36195;SDS011;22237;51.974;4.616;2023-07-13T08:14:20;7.78;;;2.80;;
36195;SDS011;22237;51.974;4.616;2023-07-13T08:16:45;8.30;;;2.47;;
36195;SDS011;22237;51.974;4.616;2023-07-13T08:19:11;6.80;;;2.08;;
36195;SDS011;22237;51.974;4.616;2023-07-13T08:21:36;5.75;;;1.80;;
36195;SDS011;22237;51.974;4.616;2023-07-13T08:24:02;7.20;;;2.95;;
36195;SDS011;22237;51.974;4.616;2023-07-13T08:26:27;2.97;;;1.75;;
36195;SDS011;22237;51.974;4.616;2023-07-13T08:28:52;2.75;;;1.98;;
36195;SDS011;22237;51.974;4.616;2023-07-13T08:31:17;4.20;;;1.70;;
36195;SDS011;22237;51.974;4.616;2023-07-13T08:33:43;3.90;;;1.50;;
36195;SDS011;22237;51.974;4.616;2023-07-13T08:36:08;9.23;;;1.85;;
36195;SDS011;22237;51.974;4.616;2023-07-13T08:38:33;4.60;;;1.50;;
36195;SDS011;22237;51.974;4.616;2023-07-13T08:40:59;6.97;;;2.07;;
36195;SDS011;22237;51.974;4.616;2023-07-13T08:43:34;7.70;;;2.45;;
36195;SDS011;22237;51.974;4.616;2023-07-13T08:46:05;5.63;;;2.03;;
36195;SDS011;22237;51.974;4.616;2023-07-13T08:48:35;8.10;;;1.83;;
36195;SDS011;22237;51.974;4.616;2023-07-13T08:51:16;4.25;;;1.90;;
36195;SDS011;22237;51.974;4.616;2023-07-13T08:53:47;2.85;;;1.92;;
36195;SDS011;22237;51.974;4.616;2023-07-13T08:56:17;6.43;;;1.90;;
36195;SDS011;22237;51.974;4.616;2023-07-13T08:58:43;4.45;;;2.03;;
36195;SDS011;22237;51.974;4.616;2023-07-13T09:01:13;7.78;;;1.90;;
36195;SDS011;22237;51.974;4.616;2023-07-13T09:03:49;5.72;;;1.85;;
36195;SDS011;22237;51.974;4.616;2023-07-13T09:06:17;6.95;;;1.88;;
36195;SDS011;22237;51.974;4.616;2023-07-13T09:09:26;7.07;;;2.22;;
36195;SDS011;22237;51.974;4.616;2023-07-13T09:14:13;7.00;;;2.30;;
36195;SDS011;22237;51.974;4.616;2023-07-13T09:16:43;3.85;;;1.70;;
36195;SDS011;22237;51.974;4.616;2023-07-13T09:19:20;5.60;;;1.92;;
36195;SDS011;22237;51.974;4.616;2023-07-13T09:21:47;1.70;;;1.20;;
36195;SDS011;22237;51.974;4.616;2023-07-13T09:26:57;1.45;;;1.00;;
36195;SDS011;22237;51.974;4.616;2023-07-13T09:29:27;4.05;;;1.55;;
36195;SDS011;22237;51.974;4.616;2023-07-13T09:31:54;3.33;;;1.77;;
36195;SDS011;22237;51.974;4.616;2023-07-13T09:34:20;6.15;;;1.98;;
36195;SDS011;22237;51.974;4.616;2023-07-13T09:36:45;2.53;;;1.20;;
36195;SDS011;22237;51.974;4.616;2023-07-13T09:39:14;1.95;;;1.58;;
36195;SDS011;22237;51.974;4.616;2023-07-13T09:46:30;3.97;;;1.77;;
36195;SDS011;22237;51.974;4.616;2023-07-13T09:48:55;4.77;;;1.80;;
36195;SDS011;22237;51.974;4.616;2023-07-13T09:51:21;6.63;;;2.55;;
36195;SDS011;22237;51.974;4.616;2023-07-13T09:53:46;7.25;;;2.13;;
36195;SDS011;22237;51.974;4.616;2023-07-13T09:56:21;6.93;;;2.20;;
36195;SDS011;22237;51.974;4.616;2023-07-13T09:58:47;5.38;;;2.08;;
36195;SDS011;22237;51.974;4.616;2023-07-13T10:01:12;5.60;;;1.67;;
36195;SDS011;22237;51.974;4.616;2023-07-13T10:03:39;4.90;;;2.13;;
36195;SDS011;22237;51.974;4.616;2023-07-13T10:06:13;8.68;;;2.33;;
36195;SDS011;22237;51.974;4.616;2023-07-13T10:08:39;5.88;;;1.80;;
36195;SDS011;22237;51.974;4.616;2023-07-13T10:16:02;8.93;;;2.10;;
36195;SDS011;22237;51.974;4.616;2023-07-13T10:18:27;3.83;;;1.88;;
36195;SDS011;22237;51.974;4.616;2023-07-13T10:20:54;8.18;;;2.25;;
36195;SDS011;22237;51.974;4.616;2023-07-13T10:23:23;4.55;;;1.98;;
36195;SDS011;22237;51.974;4.616;2023-07-13T10:25:52;6.22;;;1.45;;
36195;SDS011;22237;51.974;4.616;2023-07-13T10:28:29;4.93;;;3.10;;
36195;SDS011;22237;51.974;4.616;2023-07-13T10:30:55;7.18;;;2.20;;
36195;SDS011;22237;51.974;4.616;2023-07-13T10:33:22;4.90;;;1.80;;
36195;SDS011;22237;51.974;4.616;2023-07-13T10:35:47;2.33;;;1.88;;
36195;SDS011;22237;51.974;4.616;2023-07-13T10:38:18;10.07;;;1.55;;
36195;SDS011;22237;51.974;4.616;2023-07-13T10:40:48;4.88;;;2.13;;
36195;SDS011;22237;51.974;4.616;2023-07-13T10:43:18;2.28;;;1.60;;
36195;SDS011;22237;51.974;4.616;2023-07-13T10:45:44;10.52;;;1.90;;
36195;SDS011;22237;51.974;4.616;2023-07-13T10:48:11;5.45;;;1.98;;
36195;SDS011;22237;51.974;4.616;2023-07-13T10:50:38;4.63;;;2.00;;
36195;SDS011;22237;51.974;4.616;2023-07-13T10:53:48;6.55;;;1.85;;
36195;SDS011;22237;51.974;4.616;2023-07-13T10:55:55;3.65;;;1.52;;
36195;SDS011;22237;51.974;4.616;2023-07-13T11:03:19;4.57;;;1.98;;
36195;SDS011;22237;51.974;4.616;2023-07-13T11:05:47;4.53;;;2.35;;
36195;SDS011;22237;51.974;4.616;2023-07-13T11:08:20;5.90;;;1.92;;
36195;SDS011;22237;51.974;4.616;2023-07-13T11:10:56;7.43;;;2.58;;
36195;SDS011;22237;51.974;4.616;2023-07-13T11:16:12;1.85;;;1.58;;
36195;SDS011;22237;51.974;4.616;2023-07-13T11:18:37;6.20;;;1.65;;
36195;SDS011;22237;51.974;4.616;2023-07-13T11:21:13;7.80;;;1.77;;
36195;SDS011;22237;51.974;4.616;2023-07-13T11:23:41;1.65;;;1.42;;
36195;SDS011;22237;51.974;4.616;2023-07-13T11:26:36;6.13;;;1.52;;
36195;SDS011;22237;51.974;4.616;2023-07-13T11:28:52;5.55;;;1.60;;
36195;SDS011;22237;51.974;4.616;2023-07-13T11:31:17;10.70;;;1.38;;
36195;SDS011;22237;51.974;4.616;2023-07-13T11:33:51;6.05;;;2.88;;
36195;SDS011;22237;51.974;4.616;2023-07-13T11:36:21;3.30;;;1.30;;
36195;SDS011;22237;51.974;4.616;2023-07-13T11:39:01;2.90;;;1.67;;
36195;SDS011;22237;51.974;4.616;2023-07-13T11:41:28;4.85;;;1.70;;
36195;SDS011;22237;51.974;4.616;2023-07-13T11:43:55;4.15;;;1.40;;
36195;SDS011;22237;51.974;4.616;2023-07-13T11:46:22;9.25;;;1.70;;
36195;SDS011;22237;51.974;4.616;2023-07-13T11:48:48;12.32;;;1.10;;
36195;SDS011;22237;51.974;4.616;2023-07-13T11:51:21;5.13;;;1.95;;
36195;SDS011;22237;51.974;4.616;2023-07-13T11:53:48;3.65;;;1.15;;
36195;SDS011;22237;51.974;4.616;2023-07-13T11:56:14;6.28;;;1.30;;
36195;SDS011;22237;51.974;4.616;2023-07-13T11:58:39;3.25;;;1.38;;
36195;SDS011;22237;51.974;4.616;2023-07-13T12:01:05;2.78;;;1.30;;
36195;SDS011;22237;51.974;4.616;2023-07-13T12:03:32;1.38;;;1.15;;
36195;SDS011;22237;51.974;4.616;2023-07-13T12:05:58;4.13;;;2.55;;
36195;SDS011;22237;51.974;4.616;2023-07-13T12:08:25;2.75;;;1.30;;
36195;SDS011;22237;51.974;4.616;2023-07-13T12:11:03;1.50;;;1.23;;
36195;SDS011;22237;51.974;4.616;2023-07-13T12:13:34;7.03;;;1.77;;
36195;SDS011;22237;51.974;4.616;2023-07-13T12:16:00;3.13;;;1.42;;
36195;SDS011;22237;51.974;4.616;2023-07-13T12:18:28;3.08;;;1.60;;
36195;SDS011;22237;51.974;4.616;2023-07-13T12:20:55;7.25;;;1.42;;
36195;SDS011;22237;51.974;4.616;2023-07-13T12:23:39;3.75;;;1.20;;
36195;SDS011;22237;51.974;4.616;2023-07-13T12:26:09;5.57;;;1.23;;
36195;SDS011;22237;51.974;4.616;2023-07-13T12:28:43;7.65;;;1.48;;
36195;SDS011;22237;51.974;4.616;2023-07-13T12:36:37;3.05;;;1.33;;
36195;SDS011;22237;51.974;4.616;2023-07-13T12:39:12;2.42;;;1.35;;
36195;SDS011;22237;51.974;4.616;2023-07-13T12:41:38;3.30;;;2.15;;
36195;SDS011;22237;51.974;4.616;2023-07-13T12:44:04;3.38;;;1.42;;
36195;SDS011;22237;51.974;4.616;2023-07-13T12:46:30;3.75;;;1.42;;
36195;SDS011;22237;51.974;4.616;2023-07-13T12:48:56;5.60;;;1.80;;
36195;SDS011;22237;51.974;4.616;2023-07-13T12:51:22;2.85;;;1.70;;
36195;SDS011;22237;51.974;4.616;2023-07-13T12:53:51;3.40;;;1.13;;
36195;SDS011;22237;51.974;4.616;2023-07-13T12:56:21;3.35;;;1.30;;
36195;SDS011;22237;51.974;4.616;2023-07-13T12:58:47;1.65;;;1.02;;
36195;SDS011;22237;51.974;4.616;2023-07-13T13:01:19;3.72;;;1.27;;
36195;SDS011;22237;51.974;4.616;2023-07-13T13:03:50;1.90;;;1.00;;
36195;SDS011;22237;51.974;4.616;2023-07-13T13:08:45;2.80;;;1.58;;
36195;SDS011;22237;51.974;4.616;2023-07-13T13:11:11;3.95;;;1.45;;
36195;SDS011;22237;51.974;4.616;2023-07-13T13:13:36;4.25;;;1.15;;
36195;SDS011;22237;51.974;4.616;2023-07-13T13:16:02;2.08;;;1.10;;
36195;SDS011;22237;51.974;4.616;2023-07-13T13:18:31;2.90;;;1.05;;
36195;SDS011;22237;51.974;4.616;2023-07-13T13:20:56;5.95;;;1.42;;
36195;SDS011;22237;51.974;4.616;2023-07-13T13:23:21;1.83;;;1.00;;
36195;SDS011;22237;51.974;4.616;2023-07-13T13:25:49;7.57;;;1.10;;
36195;SDS011;22237;51.974;4.616;2023-07-13T13:28:16;0.80;;;0.80;;
36195;SDS011;22237;51.974;4.616;2023-07-13T13:30:43;2.35;;;0.90;;
36195;SDS011;22237;51.974;4.616;2023-07-13T13:33:12;4.20;;;1.10;;
36195;SDS011;22237;51.974;4.616;2023-07-13T13:35:38;2.88;;;1.02;;
36195;SDS011;22237;51.974;4.616;2023-07-13T13:38:08;1.98;;;1.10;;
36195;SDS011;22237;51.974;4.616;2023-07-13T13:40:34;3.72;;;1.23;;
36195;SDS011;22237;51.974;4.616;2023-07-13T13:43:08;1.33;;;1.10;;
36195;SDS011;22237;51.974;4.616;2023-07-13T13:45:39;4.85;;;1.20;;
36195;SDS011;22237;51.974;4.616;2023-07-13T13:48:04;0.85;;;0.80;;
36195;SDS011;22237;51.974;4.616;2023-07-13T13:50:30;2.42;;;0.90;;
36195;SDS011;22237;51.974;4.616;2023-07-13T13:52:55;1.20;;;1.00;;
36195;SDS011;22237;51.974;4.616;2023-07-13T13:55:21;5.83;;;0.90;;
36195;SDS011;22237;51.974;4.616;2023-07-13T13:57:47;8.23;;;1.55;;
36195;SDS011;22237;51.974;4.616;2023-07-13T14:00:13;4.25;;;1.30;;
36195;SDS011;22237;51.974;4.616;2023-07-13T14:02:48;6.20;;;1.13;;
36195;SDS011;22237;51.974;4.616;2023-07-13T14:05:17;4.95;;;1.05;;
36195;SDS011;22237;51.974;4.616;2023-07-13T14:07:44;2.70;;;0.88;;
36195;SDS011;22237;51.974;4.616;2023-07-13T14:10:14;4.85;;;1.08;;
36195;SDS011;22237;51.974;4.616;2023-07-13T14:12:40;0.70;;;0.68;;
36195;SDS011;22237;51.974;4.616;2023-07-13T14:15:05;1.80;;;0.98;;
36195;SDS011;22237;51.974;4.616;2023-07-13T14:17:31;1.60;;;0.93;;
36195;SDS011;22237;51.974;4.616;2023-07-13T14:19:56;2.70;;;0.90;;
36195;SDS011;22237;51.974;4.616;2023-07-13T14:22:22;2.20;;;0.68;;
36195;SDS011;22237;51.974;4.616;2023-07-13T14:24:47;1.52;;;1.00;;
36195;SDS011;22237;51.974;4.616;2023-07-13T14:27:14;1.58;;;0.77;;
36195;SDS011;22237;51.974;4.616;2023-07-13T14:29:39;2.60;;;0.90;;
36195;SDS011;22237;51.974;4.616;2023-07-13T14:32:05;5.07;;;1.42;;
36195;SDS011;22237;51.974;4.616;2023-07-13T14:34:31;2.83;;;0.90;;
36195;SDS011;22237;51.974;4.616;2023-07-13T14:36:56;2.42;;;0.85;;
36195;SDS011;22237;51.974;4.616;2023-07-13T14:39:22;3.97;;;1.13;;
36195;SDS011;22237;51.974;4.616;2023-07-13T14:41:52;1.48;;;0.70;;
36195;SDS011;22237;51.974;4.616;2023-07-13T14:44:19;5.00;;;0.80;;
36195;SDS011;22237;51.974;4.616;2023-07-13T14:46:45;5.18;;;1.05;;
36195;SDS011;22237;51.974;4.616;2023-07-13T14:51:56;1.63;;;0.93;;
36195;SDS011;22237;51.974;4.616;2023-07-13T14:54:22;3.80;;;0.98;;
36195;SDS011;22237;51.974;4.616;2023-07-13T14:56:48;2.55;;;0.85;;
36195;SDS011;22237;51.974;4.616;2023-07-13T14:59:13;5.40;;;1.63;;
36195;SDS011;22237;51.974;4.616;2023-07-13T15:01:39;2.58;;;1.52;;
36195;SDS011;22237;51.974;4.616;2023-07-13T15:04:05;1.05;;;0.98;;
36195;SDS011;22237;51.974;4.616;2023-07-13T15:06:30;1.33;;;0.80;;
36195;SDS011;22237;51.974;4.616;2023-07-13T15:08:56;2.15;;;0.90;;
36195;SDS011;22237;51.974;4.616;2023-07-13T15:11:22;4.43;;;0.70;;
36195;SDS011;22237;51.974;4.616;2023-07-13T15:13:47;5.25;;;1.30;;